sensor_id;sensor_type;location;lat;lon;timestamp;P1;durP1;ratioP1;P2;durP2;ratioP2
76612;SDS011;65507;48.454;-2.058;2024-01-15T00:01:28;29.45;;;11.15;;
76612;SDS011;65507;48.454;-2.058;2024-01-15T00:03:54;28.50;;;11.77;;
76612;SDS011;65507;48.454;-2.058;2024-01-15T00:06:19;28.58;;;10.35;;
76612;SDS011;65507;48.454;-2.058;2024-01-15T00:08:45;29.90;;;11.07;;
76612;SDS011;65507;48.454;-2.058;2024-01-15T00:11:11;27.70;;;10.63;;
76612;SDS011;65507;48.454;-2.058;2024-01-15T00:13:37;24.92;;;10.52;;
76612;SDS011;65507;48.454;-2.058;2024-01-15T00:16:03;30.05;;;11.18;;
76612;SDS011;65507;48.454;-2.058;2024-01-15T00:18:29;25.65;;;10.73;;
76612;SDS011;65507;48.454;-2.058;2024-01-15T00:20:55;25.40;;;10.23;;
76612;SDS011;65507;48.454;-2.058;2024-01-15T00:23:22;26.98;;;10.88;;
76612;SDS011;65507;48.454;-2.058;2024-01-15T00:25:47;27.38;;;10.35;;
76612;SDS011;65507;48.454;-2.058;2024-01-15T00:28:13;26.83;;;11.13;;
76612;SDS011;65507;48.454;-2.058;2024-01-15T00:30:39;31.70;;;11.35;;
76612;SDS011;65507;48.454;-2.058;2024-01-15T00:33:04;25.20;;;10.40;;
76612;SDS011;65507;48.454;-2.058;2024-01-15T00:35:30;28.88;;;10.82;;
76612;SDS011;65507;48.454;-2.058;2024-01-15T00:37:56;27.33;;;10.63;;
76612;SDS011;65507;48.454;-2.058;2024-01-15T00:40:21;29.73;;;10.95;;
76612;SDS011;65507;48.454;-2.058;2024-01-15T00:42:47;28.65;;;11.85;;
76612;SDS011;65507;48.454;-2.058;2024-01-15T00:45:12;28.88;;;11.13;;
76612;SDS011;65507;48.454;-2.058;2024-01-15T00:47:38;27.42;;;11.10;;
76612;SDS011;65507;48.454;-2.058;2024-01-15T00:50:04;25.10;;;11.02;;
76612;SDS011;65507;48.454;-2.058;2024-01-15T00:52:30;27.13;;;10.07;;
76612;SDS011;65507;48.454;-2.058;2024-01-15T00:54:56;27.08;;;10.73;;
76612;SDS011;65507;48.454;-2.058;2024-01-15T00:57:22;27.48;;;11.88;;
76612;SDS011;65507;48.454;-2.058;2024-01-15T00:59:48;25.50;;;10.48;;
76612;SDS011;65507;48.454;-2.058;2024-01-15T01:02:13;29.42;;;11.75;;
76612;SDS011;65507;48.454;-2.058;2024-01-15T01:04:40;27.55;;;10.98;;
76612;SDS011;65507;48.454;-2.058;2024-01-15T01:07:05;22.73;;;10.55;;
76612;SDS011;65507;48.454;-2.058;2024-01-15T01:09:31;27.63;;;11.25;;
76612;SDS011;65507;48.454;-2.058;2024-01-15T01:11:57;25.77;;;10.40;;
76612;SDS011;65507;48.454;-2.058;2024-01-15T01:14:22;28.55;;;10.68;;
76612;SDS011;65507;48.454;-2.058;2024-01-15T01:16:48;22.73;;;9.93;;
76612;SDS011;65507;48.454;-2.058;2024-01-15T01:19:14;28.23;;;11.13;;
76612;SDS011;65507;48.454;-2.058;2024-01-15T01:21:39;30.88;;;11.20;;
76612;SDS011;65507;48.454;-2.058;2024-01-15T01:24:05;25.98;;;10.88;;
76612;SDS011;65507;48.454;-2.058;2024-01-15T01:26:31;27.30;;;10.77;;
76612;SDS011;65507;48.454;-2.058;2024-01-15T01:28:56;26.23;;;10.10;;
76612;SDS011;65507;48.454;-2.058;2024-01-15T01:31:23;24.88;;;9.90;;
76612;SDS011;65507;48.454;-2.058;2024-01-15T01:33:49;27.98;;;10.43;;
76612;SDS011;65507;48.454;-2.058;2024-01-15T01:36:14;27.30;;;10.50;;
76612;SDS011;65507;48.454;-2.058;2024-01-15T01:38:40;29.23;;;10.18;;
76612;SDS011;65507;48.454;-2.058;2024-01-15T01:41:06;24.63;;;10.30;;
76612;SDS011;65507;48.454;-2.058;2024-01-15T01:43:32;23.92;;;9.48;;
76612;SDS011;65507;48.454;-2.058;2024-01-15T01:45:58;25.58;;;10.23;;
76612;SDS011;65507;48.454;-2.058;2024-01-15T01:50:54;27.17;;;9.95;;
76612;SDS011;65507;48.454;-2.058;2024-01-15T01:53:23;26.92;;;11.02;;
76612;SDS011;65507;48.454;-2.058;2024-01-15T01:58:16;25.08;;;10.02;;
76612;SDS011;65507;48.454;-2.058;2024-01-15T02:00:43;26.05;;;10.02;;
76612;SDS011;65507;48.454;-2.058;2024-01-15T02:03:08;25.20;;;10.30;;
76612;SDS011;65507;48.454;-2.058;2024-01-15T02:05:35;23.35;;;9.63;;
76612;SDS011;65507;48.454;-2.058;2024-01-15T02:08:01;24.02;;;10.43;;
76612;SDS011;65507;48.454;-2.058;2024-01-15T02:10:27;24.88;;;9.23;;
76612;SDS011;65507;48.454;-2.058;2024-01-15T02:12:53;29.73;;;10.23;;
76612;SDS011;65507;48.454;-2.058;2024-01-15T02:15:18;25.10;;;9.88;;
76612;SDS011;65507;48.454;-2.058;2024-01-15T02:20:23;21.25;;;9.25;;
76612;SDS011;65507;48.454;-2.058;2024-01-15T02:22:49;26.23;;;10.43;;
76612;SDS011;65507;48.454;-2.058;2024-01-15T02:25:14;22.90;;;10.60;;
76612;SDS011;65507;48.454;-2.058;2024-01-15T02:27:40;23.48;;;10.00;;
76612;SDS011;65507;48.454;-2.058;2024-01-15T02:30:07;29.27;;;11.20;;
76612;SDS011;65507;48.454;-2.058;2024-01-15T02:32:35;25.02;;;9.63;;
76612;SDS011;65507;48.454;-2.058;2024-01-15T02:35:00;23.33;;;9.95;;
76612;SDS011;65507;48.454;-2.058;2024-01-15T02:37:26;26.38;;;10.27;;
76612;SDS011;65507;48.454;-2.058;2024-01-15T02:39:51;28.90;;;10.57;;
76612;SDS011;65507;48.454;-2.058;2024-01-15T02:42:17;28.52;;;10.18;;
76612;SDS011;65507;48.454;-2.058;2024-01-15T02:44:43;26.65;;;10.32;;
76612;SDS011;65507;48.454;-2.058;2024-01-15T02:47:09;29.83;;;10.60;;
76612;SDS011;65507;48.454;-2.058;2024-01-15T02:49:34;22.33;;;9.73;;
76612;SDS011;65507;48.454;-2.058;2024-01-15T02:52:00;25.58;;;8.73;;
76612;SDS011;65507;48.454;-2.058;2024-01-15T02:54:25;24.42;;;9.98;;
76612;SDS011;65507;48.454;-2.058;2024-01-15T02:56:51;26.27;;;10.25;;
76612;SDS011;65507;48.454;-2.058;2024-01-15T02:59:17;24.20;;;9.68;;
76612;SDS011;65507;48.454;-2.058;2024-01-15T03:01:42;23.48;;;9.38;;
76612;SDS011;65507;48.454;-2.058;2024-01-15T03:04:08;26.90;;;8.90;;
76612;SDS011;65507;48.454;-2.058;2024-01-15T03:06:33;26.25;;;9.02;;
76612;SDS011;65507;48.454;-2.058;2024-01-15T03:08:59;23.23;;;9.63;;
76612;SDS011;65507;48.454;-2.058;2024-01-15T03:11:25;24.30;;;9.88;;
76612;SDS011;65507;48.454;-2.058;2024-01-15T03:13:51;23.77;;;8.93;;
76612;SDS011;65507;48.454;-2.058;2024-01-15T03:16:16;23.30;;;8.60;;
76612;SDS011;65507;48.454;-2.058;2024-01-15T03:18:44;24.63;;;9.90;;
76612;SDS011;65507;48.454;-2.058;2024-01-15T03:21:10;21.33;;;9.02;;
76612;SDS011;65507;48.454;-2.058;2024-01-15T03:23:36;21.05;;;8.93;;
76612;SDS011;65507;48.454;-2.058;2024-01-15T03:26:01;23.75;;;9.18;;
76612;SDS011;65507;48.454;-2.058;2024-01-15T03:28:27;22.02;;;9.60;;
76612;SDS011;65507;48.454;-2.058;2024-01-15T03:30:55;20.50;;;9.00;;
76612;SDS011;65507;48.454;-2.058;2024-01-15T03:33:21;18.55;;;8.45;;
76612;SDS011;65507;48.454;-2.058;2024-01-15T03:35:46;25.10;;;9.27;;
76612;SDS011;65507;48.454;-2.058;2024-01-15T03:38:12;23.48;;;9.52;;
76612;SDS011;65507;48.454;-2.058;2024-01-15T03:40:38;19.98;;;8.82;;
76612;SDS011;65507;48.454;-2.058;2024-01-15T03:43:03;22.17;;;9.77;;
76612;SDS011;65507;48.454;-2.058;2024-01-15T03:45:29;21.02;;;7.75;;
76612;SDS011;65507;48.454;-2.058;2024-01-15T03:47:54;23.02;;;8.45;;
76612;SDS011;65507;48.454;-2.058;2024-01-15T03:50:20;21.75;;;8.63;;
76612;SDS011;65507;48.454;-2.058;2024-01-15T03:52:46;20.35;;;8.00;;
76612;SDS011;65507;48.454;-2.058;2024-01-15T03:55:11;22.65;;;8.65;;
76612;SDS011;65507;48.454;-2.058;2024-01-15T03:57:37;23.63;;;9.63;;
76612;SDS011;65507;48.454;-2.058;2024-01-15T04:00:03;23.98;;;9.38;;
76612;SDS011;65507;48.454;-2.058;2024-01-15T04:02:29;21.70;;;8.52;;
76612;SDS011;65507;48.454;-2.058;2024-01-15T04:04:54;24.20;;;9.38;;
76612;SDS011;65507;48.454;-2.058;2024-01-15T04:07:23;22.73;;;8.98;;
76612;SDS011;65507;48.454;-2.058;2024-01-15T04:09:49;20.27;;;9.35;;
76612;SDS011;65507;48.454;-2.058;2024-01-15T04:12:14;24.90;;;8.85;;
76612;SDS011;65507;48.454;-2.058;2024-01-15T04:14:40;22.48;;;8.85;;
76612;SDS011;65507;48.454;-2.058;2024-01-15T04:17:06;24.15;;;8.65;;
76612;SDS011;65507;48.454;-2.058;2024-01-15T04:19:34;23.02;;;8.75;;
76612;SDS011;65507;48.454;-2.058;2024-01-15T04:22:00;19.65;;;7.85;;
76612;SDS011;65507;48.454;-2.058;2024-01-15T04:24:25;22.25;;;9.20;;
76612;SDS011;65507;48.454;-2.058;2024-01-15T04:26:51;23.08;;;9.70;;
76612;SDS011;65507;48.454;-2.058;2024-01-15T04:29:17;18.27;;;8.30;;
76612;SDS011;65507;48.454;-2.058;2024-01-15T04:31:42;21.73;;;9.07;;
76612;SDS011;65507;48.454;-2.058;2024-01-15T04:34:08;24.35;;;9.23;;
76612;SDS011;65507;48.454;-2.058;2024-01-15T04:36:42;24.73;;;8.77;;
76612;SDS011;65507;48.454;-2.058;2024-01-15T04:39:08;20.83;;;9.23;;
76612;SDS011;65507;48.454;-2.058;2024-01-15T04:41:34;19.20;;;8.52;;
76612;SDS011;65507;48.454;-2.058;2024-01-15T04:44:00;20.95;;;8.68;;
76612;SDS011;65507;48.454;-2.058;2024-01-15T04:46:26;20.25;;;8.50;;
76612;SDS011;65507;48.454;-2.058;2024-01-15T04:48:52;18.23;;;7.85;;
76612;SDS011;65507;48.454;-2.058;2024-01-15T04:51:17;21.85;;;8.38;;
76612;SDS011;65507;48.454;-2.058;2024-01-15T04:53:46;17.83;;;7.88;;
76612;SDS011;65507;48.454;-2.058;2024-01-15T04:56:11;20.17;;;8.30;;
76612;SDS011;65507;48.454;-2.058;2024-01-15T04:58:37;20.73;;;7.90;;
76612;SDS011;65507;48.454;-2.058;2024-01-15T05:01:02;17.15;;;7.65;;
76612;SDS011;65507;48.454;-2.058;2024-01-15T05:03:28;18.98;;;7.90;;
76612;SDS011;65507;48.454;-2.058;2024-01-15T05:05:54;19.33;;;7.72;;
76612;SDS011;65507;48.454;-2.058;2024-01-15T05:08:20;22.33;;;8.43;;
76612;SDS011;65507;48.454;-2.058;2024-01-15T05:10:46;19.23;;;8.32;;
76612;SDS011;65507;48.454;-2.058;2024-01-15T05:13:12;20.65;;;8.90;;
76612;SDS011;65507;48.454;-2.058;2024-01-15T05:15:38;19.15;;;8.20;;
76612;SDS011;65507;48.454;-2.058;2024-01-15T05:18:04;18.30;;;8.30;;
76612;SDS011;65507;48.454;-2.058;2024-01-15T05:20:29;20.45;;;7.70;;
76612;SDS011;65507;48.454;-2.058;2024-01-15T05:22:56;21.00;;;8.50;;
76612;SDS011;65507;48.454;-2.058;2024-01-15T05:25:21;22.50;;;7.53;;
76612;SDS011;65507;48.454;-2.058;2024-01-15T05:27:47;18.95;;;8.23;;
76612;SDS011;65507;48.454;-2.058;2024-01-15T05:30:13;19.23;;;7.82;;
76612;SDS011;65507;48.454;-2.058;2024-01-15T05:32:39;19.20;;;8.20;;
76612;SDS011;65507;48.454;-2.058;2024-01-15T05:35:05;17.13;;;7.38;;
76612;SDS011;65507;48.454;-2.058;2024-01-15T05:37:31;22.73;;;7.38;;
76612;SDS011;65507;48.454;-2.058;2024-01-15T05:39:56;20.20;;;8.10;;
76612;SDS011;65507;48.454;-2.058;2024-01-15T05:42:22;20.20;;;7.65;;
76612;SDS011;65507;48.454;-2.058;2024-01-15T05:44:48;22.75;;;8.00;;
76612;SDS011;65507;48.454;-2.058;2024-01-15T05:47:13;18.88;;;7.65;;
76612;SDS011;65507;48.454;-2.058;2024-01-15T05:49:39;19.85;;;8.13;;
76612;SDS011;65507;48.454;-2.058;2024-01-15T05:52:05;17.58;;;8.00;;
76612;SDS011;65507;48.454;-2.058;2024-01-15T05:54:31;21.08;;;7.95;;
76612;SDS011;65507;48.454;-2.058;2024-01-15T05:56:57;17.00;;;7.78;;
76612;SDS011;65507;48.454;-2.058;2024-01-15T05:59:22;19.08;;;6.85;;
76612;SDS011;65507;48.454;-2.058;2024-01-15T06:01:48;20.83;;;8.00;;
76612;SDS011;65507;48.454;-2.058;2024-01-15T06:04:14;18.33;;;7.95;;
76612;SDS011;65507;48.454;-2.058;2024-01-15T06:06:39;22.20;;;7.68;;
76612;SDS011;65507;48.454;-2.058;2024-01-15T06:09:05;20.48;;;7.68;;
76612;SDS011;65507;48.454;-2.058;2024-01-15T06:11:31;18.70;;;8.18;;
76612;SDS011;65507;48.454;-2.058;2024-01-15T06:13:57;17.00;;;7.22;;
76612;SDS011;65507;48.454;-2.058;2024-01-15T06:16:24;16.52;;;7.78;;
76612;SDS011;65507;48.454;-2.058;2024-01-15T06:18:49;20.55;;;7.15;;
76612;SDS011;65507;48.454;-2.058;2024-01-15T06:21:15;19.55;;;7.95;;
76612;SDS011;65507;48.454;-2.058;2024-01-15T06:23:41;20.08;;;8.25;;
76612;SDS011;65507;48.454;-2.058;2024-01-15T06:26:07;17.70;;;7.72;;
76612;SDS011;65507;48.454;-2.058;2024-01-15T06:28:33;17.10;;;8.27;;
76612;SDS011;65507;48.454;-2.058;2024-01-15T06:30:59;17.58;;;7.18;;
76612;SDS011;65507;48.454;-2.058;2024-01-15T06:33:24;16.30;;;7.25;;
76612;SDS011;65507;48.454;-2.058;2024-01-15T06:35:50;18.08;;;7.43;;
76612;SDS011;65507;48.454;-2.058;2024-01-15T06:38:16;19.25;;;7.10;;
76612;SDS011;65507;48.454;-2.058;2024-01-15T06:40:42;16.73;;;7.32;;
76612;SDS011;65507;48.454;-2.058;2024-01-15T06:43:13;21.17;;;7.63;;
76612;SDS011;65507;48.454;-2.058;2024-01-15T06:45:40;19.23;;;7.43;;
76612;SDS011;65507;48.454;-2.058;2024-01-15T06:48:06;19.80;;;7.55;;
76612;SDS011;65507;48.454;-2.058;2024-01-15T06:50:32;15.23;;;6.28;;
76612;SDS011;65507;48.454;-2.058;2024-01-15T06:52:58;15.32;;;6.97;;
76612;SDS011;65507;48.454;-2.058;2024-01-15T06:55:24;16.15;;;7.03;;
76612;SDS011;65507;48.454;-2.058;2024-01-15T06:57:50;15.82;;;6.68;;
76612;SDS011;65507;48.454;-2.058;2024-01-15T07:00:17;21.13;;;6.72;;
76612;SDS011;65507;48.454;-2.058;2024-01-15T07:02:44;15.45;;;6.18;;
76612;SDS011;65507;48.454;-2.058;2024-01-15T07:05:10;14.18;;;5.88;;
76612;SDS011;65507;48.454;-2.058;2024-01-15T07:07:36;15.48;;;7.55;;
76612;SDS011;65507;48.454;-2.058;2024-01-15T07:10:02;22.17;;;6.43;;
76612;SDS011;65507;48.454;-2.058;2024-01-15T07:12:29;13.60;;;6.63;;
76612;SDS011;65507;48.454;-2.058;2024-01-15T07:14:55;14.40;;;6.78;;
76612;SDS011;65507;48.454;-2.058;2024-01-15T07:17:21;16.05;;;7.10;;
76612;SDS011;65507;48.454;-2.058;2024-01-15T07:19:47;17.63;;;7.38;;
76612;SDS011;65507;48.454;-2.058;2024-01-15T07:22:13;16.10;;;7.25;;
76612;SDS011;65507;48.454;-2.058;2024-01-15T07:24:40;13.15;;;6.35;;
76612;SDS011;65507;48.454;-2.058;2024-01-15T07:27:05;18.40;;;8.00;;
76612;SDS011;65507;48.454;-2.058;2024-01-15T07:29:31;18.75;;;5.65;;
76612;SDS011;65507;48.454;-2.058;2024-01-15T07:31:58;15.50;;;6.68;;
76612;SDS011;65507;48.454;-2.058;2024-01-15T07:34:24;14.93;;;5.95;;
76612;SDS011;65507;48.454;-2.058;2024-01-15T07:36:49;13.68;;;5.80;;
76612;SDS011;65507;48.454;-2.058;2024-01-15T07:39:15;13.63;;;5.45;;
76612;SDS011;65507;48.454;-2.058;2024-01-15T07:41:41;11.95;;;5.18;;
76612;SDS011;65507;48.454;-2.058;2024-01-15T07:44:07;9.40;;;4.93;;
76612;SDS011;65507;48.454;-2.058;2024-01-15T07:46:33;14.30;;;5.72;;
76612;SDS011;65507;48.454;-2.058;2024-01-15T07:48:58;10.43;;;4.68;;
76612;SDS011;65507;48.454;-2.058;2024-01-15T07:51:24;11.82;;;5.25;;
76612;SDS011;65507;48.454;-2.058;2024-01-15T07:53:50;10.98;;;4.60;;
76612;SDS011;65507;48.454;-2.058;2024-01-15T07:56:18;15.63;;;4.22;;
76612;SDS011;65507;48.454;-2.058;2024-01-15T07:58:43;10.75;;;4.15;;
76612;SDS011;65507;48.454;-2.058;2024-01-15T08:01:09;11.20;;;4.20;;
76612;SDS011;65507;48.454;-2.058;2024-01-15T08:03:35;14.43;;;4.25;;
76612;SDS011;65507;48.454;-2.058;2024-01-15T08:06:01;10.82;;;4.30;;
76612;SDS011;65507;48.454;-2.058;2024-01-15T08:08:27;10.00;;;4.05;;
76612;SDS011;65507;48.454;-2.058;2024-01-15T08:10:52;13.07;;;4.75;;
76612;SDS011;65507;48.454;-2.058;2024-01-15T08:13:18;12.02;;;4.82;;
76612;SDS011;65507;48.454;-2.058;2024-01-15T08:15:45;8.73;;;4.30;;
76612;SDS011;65507;48.454;-2.058;2024-01-15T08:18:11;12.38;;;5.13;;
76612;SDS011;65507;48.454;-2.058;2024-01-15T08:20:37;10.48;;;4.10;;
76612;SDS011;65507;48.454;-2.058;2024-01-15T08:23:02;9.90;;;4.07;;
76612;SDS011;65507;48.454;-2.058;2024-01-15T08:25:28;11.23;;;4.82;;
76612;SDS011;65507;48.454;-2.058;2024-01-15T08:27:55;10.27;;;4.43;;
76612;SDS011;65507;48.454;-2.058;2024-01-15T08:30:21;9.40;;;4.53;;
76612;SDS011;65507;48.454;-2.058;2024-01-15T08:32:49;10.00;;;4.53;;
76612;SDS011;65507;48.454;-2.058;2024-01-15T08:35:15;12.60;;;4.95;;
76612;SDS011;65507;48.454;-2.058;2024-01-15T08:37:41;11.65;;;4.47;;
76612;SDS011;65507;48.454;-2.058;2024-01-15T08:40:07;11.77;;;4.97;;
76612;SDS011;65507;48.454;-2.058;2024-01-15T08:42:33;10.43;;;4.38;;
76612;SDS011;65507;48.454;-2.058;2024-01-15T08:44:58;11.45;;;5.18;;
76612;SDS011;65507;48.454;-2.058;2024-01-15T08:47:24;11.35;;;4.40;;
76612;SDS011;65507;48.454;-2.058;2024-01-15T08:49:50;11.60;;;5.20;;
76612;SDS011;65507;48.454;-2.058;2024-01-15T08:52:16;12.75;;;4.45;;
76612;SDS011;65507;48.454;-2.058;2024-01-15T08:54:42;9.73;;;4.30;;
76612;SDS011;65507;48.454;-2.058;2024-01-15T08:57:07;10.38;;;4.18;;
76612;SDS011;65507;48.454;-2.058;2024-01-15T08:59:33;9.82;;;4.70;;
76612;SDS011;65507;48.454;-2.058;2024-01-15T09:01:59;8.73;;;4.18;;
76612;SDS011;65507;48.454;-2.058;2024-01-15T09:04:24;17.80;;;6.22;;
76612;SDS011;65507;48.454;-2.058;2024-01-15T09:06:50;11.57;;;4.93;;
76612;SDS011;65507;48.454;-2.058;2024-01-15T09:09:16;13.30;;;4.65;;
76612;SDS011;65507;48.454;-2.058;2024-01-15T09:11:41;15.07;;;5.60;;
76612;SDS011;65507;48.454;-2.058;2024-01-15T09:14:07;11.35;;;4.97;;
76612;SDS011;65507;48.454;-2.058;2024-01-15T09:16:34;10.05;;;4.63;;
76612;SDS011;65507;48.454;-2.058;2024-01-15T09:19:00;9.60;;;3.75;;
76612;SDS011;65507;48.454;-2.058;2024-01-15T09:21:25;9.95;;;4.10;;
76612;SDS011;65507;48.454;-2.058;2024-01-15T09:23:51;7.80;;;4.20;;
76612;SDS011;65507;48.454;-2.058;2024-01-15T09:26:17;10.10;;;4.43;;
76612;SDS011;65507;48.454;-2.058;2024-01-15T09:28:42;8.48;;;3.85;;
76612;SDS011;65507;48.454;-2.058;2024-01-15T09:31:08;10.52;;;4.53;;
76612;SDS011;65507;48.454;-2.058;2024-01-15T09:33:34;10.43;;;4.45;;
76612;SDS011;65507;48.454;-2.058;2024-01-15T09:36:03;8.77;;;4.22;;
76612;SDS011;65507;48.454;-2.058;2024-01-15T09:38:29;11.55;;;4.57;;
76612;SDS011;65507;48.454;-2.058;2024-01-15T09:40:56;8.50;;;4.03;;
76612;SDS011;65507;48.454;-2.058;2024-01-15T09:43:22;12.93;;;4.70;;
76612;SDS011;65507;48.454;-2.058;2024-01-15T09:45:49;9.20;;;4.43;;
76612;SDS011;65507;48.454;-2.058;2024-01-15T09:48:15;15.23;;;6.53;;
76612;SDS011;65507;48.454;-2.058;2024-01-15T09:50:41;8.60;;;4.30;;
76612;SDS011;65507;48.454;-2.058;2024-01-15T09:53:08;17.17;;;5.50;;
76612;SDS011;65507;48.454;-2.058;2024-01-15T09:55:35;24.17;;;5.13;;
76612;SDS011;65507;48.454;-2.058;2024-01-15T09:58:03;27.05;;;5.32;;
76612;SDS011;65507;48.454;-2.058;2024-01-15T10:00:29;11.75;;;4.60;;
76612;SDS011;65507;48.454;-2.058;2024-01-15T10:02:58;7.63;;;3.20;;
76612;SDS011;65507;48.454;-2.058;2024-01-15T10:05:25;8.05;;;3.55;;
76612;SDS011;65507;48.454;-2.058;2024-01-15T10:07:52;10.02;;;4.32;;
76612;SDS011;65507;48.454;-2.058;2024-01-15T10:10:20;6.95;;;3.35;;
76612;SDS011;65507;48.454;-2.058;2024-01-15T10:12:47;9.98;;;4.30;;
76612;SDS011;65507;48.454;-2.058;2024-01-15T10:15:13;11.13;;;4.90;;
76612;SDS011;65507;48.454;-2.058;2024-01-15T10:17:39;47.97;;;15.98;;
76612;SDS011;65507;48.454;-2.058;2024-01-15T10:20:10;10.52;;;4.65;;
76612;SDS011;65507;48.454;-2.058;2024-01-15T10:22:39;8.98;;;4.50;;
76612;SDS011;65507;48.454;-2.058;2024-01-15T10:25:12;7.82;;;3.70;;
76612;SDS011;65507;48.454;-2.058;2024-01-15T10:27:39;9.52;;;4.05;;
76612;SDS011;65507;48.454;-2.058;2024-01-15T10:30:08;12.45;;;5.63;;
76612;SDS011;65507;48.454;-2.058;2024-01-15T10:32:39;10.10;;;3.28;;
76612;SDS011;65507;48.454;-2.058;2024-01-15T10:35:06;7.65;;;2.95;;
76612;SDS011;65507;48.454;-2.058;2024-01-15T10:40:01;5.38;;;2.63;;
76612;SDS011;65507;48.454;-2.058;2024-01-15T10:42:30;5.22;;;2.50;;
76612;SDS011;65507;48.454;-2.058;2024-01-15T10:44:55;6.38;;;2.40;;
76612;SDS011;65507;48.454;-2.058;2024-01-15T10:47:21;5.10;;;2.50;;
76612;SDS011;65507;48.454;-2.058;2024-01-15T10:49:48;5.80;;;2.30;;
76612;SDS011;65507;48.454;-2.058;2024-01-15T10:52:14;6.55;;;2.53;;
76612;SDS011;65507;48.454;-2.058;2024-01-15T10:54:40;11.05;;;5.30;;
76612;SDS011;65507;48.454;-2.058;2024-01-15T10:57:08;19.75;;;9.60;;
76612;SDS011;65507;48.454;-2.058;2024-01-15T10:59:34;7.43;;;3.70;;
76612;SDS011;65507;48.454;-2.058;2024-01-15T11:02:01;4.43;;;2.60;;
76612;SDS011;65507;48.454;-2.058;2024-01-15T11:04:27;4.32;;;2.20;;
76612;SDS011;65507;48.454;-2.058;2024-01-15T11:06:53;4.90;;;2.63;;
76612;SDS011;65507;48.454;-2.058;2024-01-15T11:09:20;4.97;;;2.72;;
76612;SDS011;65507;48.454;-2.058;2024-01-15T11:11:46;6.05;;;2.90;;
76612;SDS011;65507;48.454;-2.058;2024-01-15T11:19:47;9.75;;;3.25;;
76612;SDS011;65507;48.454;-2.058;2024-01-15T11:24:56;7.10;;;3.05;;
76612;SDS011;65507;48.454;-2.058;2024-01-15T11:30:17;5.63;;;3.25;;
76612;SDS011;65507;48.454;-2.058;2024-01-15T11:32:45;6.43;;;2.88;;
76612;SDS011;65507;48.454;-2.058;2024-01-15T11:35:12;6.78;;;2.17;;
76612;SDS011;65507;48.454;-2.058;2024-01-15T11:40:20;4.32;;;2.05;;
76612;SDS011;65507;48.454;-2.058;2024-01-15T11:42:47;4.82;;;2.30;;
76612;SDS011;65507;48.454;-2.058;2024-01-15T11:45:18;2.95;;;1.75;;
76612;SDS011;65507;48.454;-2.058;2024-01-15T11:50:13;5.57;;;2.20;;
76612;SDS011;65507;48.454;-2.058;2024-01-15T11:52:39;5.03;;;2.15;;
76612;SDS011;65507;48.454;-2.058;2024-01-15T11:55:27;6.57;;;2.05;;
76612;SDS011;65507;48.454;-2.058;2024-01-15T11:58:01;4.32;;;2.20;;
76612;SDS011;65507;48.454;-2.058;2024-01-15T12:00:28;4.53;;;2.30;;
76612;SDS011;65507;48.454;-2.058;2024-01-15T12:02:54;4.88;;;1.98;;
76612;SDS011;65507;48.454;-2.058;2024-01-15T12:05:21;25.58;;;9.43;;
76612;SDS011;65507;48.454;-2.058;2024-01-15T12:07:48;51.77;;;16.50;;
76612;SDS011;65507;48.454;-2.058;2024-01-15T12:10:15;10.13;;;4.82;;
76612;SDS011;65507;48.454;-2.058;2024-01-15T12:15:30;6.57;;;2.58;;
76612;SDS011;65507;48.454;-2.058;2024-01-15T12:17:58;8.30;;;2.53;;
76612;SDS011;65507;48.454;-2.058;2024-01-15T12:20:26;3.05;;;2.08;;
76612;SDS011;65507;48.454;-2.058;2024-01-15T12:22:52;4.60;;;1.92;;
76612;SDS011;65507;48.454;-2.058;2024-01-15T12:25:20;3.63;;;2.10;;
76612;SDS011;65507;48.454;-2.058;2024-01-15T12:27:46;6.53;;;2.67;;
76612;SDS011;65507;48.454;-2.058;2024-01-15T12:30:13;5.15;;;2.20;;
76612;SDS011;65507;48.454;-2.058;2024-01-15T12:32:40;5.13;;;2.28;;
76612;SDS011;65507;48.454;-2.058;2024-01-15T12:35:12;6.78;;;2.65;;
76612;SDS011;65507;48.454;-2.058;2024-01-15T12:37:41;5.95;;;2.20;;
76612;SDS011;65507;48.454;-2.058;2024-01-15T12:40:08;5.82;;;2.40;;
76612;SDS011;65507;48.454;-2.058;2024-01-15T12:42:36;6.57;;;3.22;;
76612;SDS011;65507;48.454;-2.058;2024-01-15T12:45:03;3.83;;;2.22;;
76612;SDS011;65507;48.454;-2.058;2024-01-15T12:47:31;5.60;;;2.22;;
76612;SDS011;65507;48.454;-2.058;2024-01-15T12:49:57;3.50;;;1.80;;
76612;SDS011;65507;48.454;-2.058;2024-01-15T12:52:26;6.47;;;1.88;;
76612;SDS011;65507;48.454;-2.058;2024-01-15T12:54:52;5.07;;;1.90;;
76612;SDS011;65507;48.454;-2.058;2024-01-15T12:57:18;4.15;;;1.98;;
76612;SDS011;65507;48.454;-2.058;2024-01-15T12:59:44;7.65;;;2.20;;
76612;SDS011;65507;48.454;-2.058;2024-01-15T13:02:13;2.78;;;1.80;;
76612;SDS011;65507;48.454;-2.058;2024-01-15T13:04:39;4.47;;;1.88;;
76612;SDS011;65507;48.454;-2.058;2024-01-15T13:07:05;3.72;;;1.77;;
76612;SDS011;65507;48.454;-2.058;2024-01-15T13:09:32;6.65;;;2.00;;
76612;SDS011;65507;48.454;-2.058;2024-01-15T13:11:58;5.25;;;1.92;;
76612;SDS011;65507;48.454;-2.058;2024-01-15T13:14:24;6.78;;;2.15;;
76612;SDS011;65507;48.454;-2.058;2024-01-15T13:16:50;5.03;;;1.90;;
76612;SDS011;65507;48.454;-2.058;2024-01-15T13:19:16;4.78;;;1.73;;
76612;SDS011;65507;48.454;-2.058;2024-01-15T13:21:42;2.92;;;1.80;;
76612;SDS011;65507;48.454;-2.058;2024-01-15T13:24:08;3.38;;;2.03;;
76612;SDS011;65507;48.454;-2.058;2024-01-15T13:26:34;5.25;;;2.40;;
76612;SDS011;65507;48.454;-2.058;2024-01-15T13:29:03;6.65;;;2.33;;
76612;SDS011;65507;48.454;-2.058;2024-01-15T13:31:32;5.13;;;2.08;;
76612;SDS011;65507;48.454;-2.058;2024-01-15T13:33:58;5.68;;;2.63;;
76612;SDS011;65507;48.454;-2.058;2024-01-15T13:36:25;6.05;;;2.30;;
76612;SDS011;65507;48.454;-2.058;2024-01-15T13:38:51;6.13;;;2.55;;
76612;SDS011;65507;48.454;-2.058;2024-01-15T13:41:18;4.93;;;2.65;;
76612;SDS011;65507;48.454;-2.058;2024-01-15T13:43:54;4.93;;;2.60;;
76612;SDS011;65507;48.454;-2.058;2024-01-15T13:46:24;5.70;;;2.92;;
76612;SDS011;65507;48.454;-2.058;2024-01-15T13:48:51;4.35;;;2.22;;
76612;SDS011;65507;48.454;-2.058;2024-01-15T13:51:17;5.70;;;2.80;;
76612;SDS011;65507;48.454;-2.058;2024-01-15T13:53:43;4.85;;;2.33;;
76612;SDS011;65507;48.454;-2.058;2024-01-15T13:56:08;4.60;;;2.38;;
76612;SDS011;65507;48.454;-2.058;2024-01-15T13:58:35;7.37;;;2.73;;
76612;SDS011;65507;48.454;-2.058;2024-01-15T14:01:02;3.03;;;2.00;;
76612;SDS011;65507;48.454;-2.058;2024-01-15T14:03:31;4.35;;;2.53;;
76612;SDS011;65507;48.454;-2.058;2024-01-15T14:05:57;3.97;;;2.08;;
76612;SDS011;65507;48.454;-2.058;2024-01-15T14:08:23;5.03;;;1.90;;
76612;SDS011;65507;48.454;-2.058;2024-01-15T14:10:49;4.65;;;1.92;;
76612;SDS011;65507;48.454;-2.058;2024-01-15T14:13:15;3.28;;;1.80;;
76612;SDS011;65507;48.454;-2.058;2024-01-15T14:15:40;3.25;;;1.45;;
76612;SDS011;65507;48.454;-2.058;2024-01-15T14:18:06;4.22;;;1.27;;
76612;SDS011;65507;48.454;-2.058;2024-01-15T14:20:32;2.75;;;1.10;;
76612;SDS011;65507;48.454;-2.058;2024-01-15T14:22:58;3.95;;;1.13;;
76612;SDS011;65507;48.454;-2.058;2024-01-15T14:25:23;7.32;;;1.20;;
76612;SDS011;65507;48.454;-2.058;2024-01-15T14:27:49;2.25;;;0.98;;
76612;SDS011;65507;48.454;-2.058;2024-01-15T14:30:15;2.25;;;0.70;;
76612;SDS011;65507;48.454;-2.058;2024-01-15T14:32:44;0.85;;;0.60;;
76612;SDS011;65507;48.454;-2.058;2024-01-15T14:35:10;1.80;;;0.68;;
76612;SDS011;65507;48.454;-2.058;2024-01-15T14:37:38;3.30;;;0.90;;
76612;SDS011;65507;48.454;-2.058;2024-01-15T14:40:05;1.67;;;0.70;;
76612;SDS011;65507;48.454;-2.058;2024-01-15T14:42:35;4.20;;;0.85;;
76612;SDS011;65507;48.454;-2.058;2024-01-15T14:45:02;2.13;;;0.80;;
76612;SDS011;65507;48.454;-2.058;2024-01-15T14:47:36;1.00;;;0.55;;